Averill, Minnesota
Current Conditions -  °F | °C
As of 4:11 AM on Wednesday 26 Nov 2014 (Local Time) from KJKJ Reporting Station
Unknown Precip Unknown Precip  
Wind Chill: -8°   Ceiling: 800
Heat Index: 12°   Visibility: 4mi
Dew Point: 10°   Wind: 24mph
Humidity: 92%   Direction: 360°N
Pressure: 30.19"   Gusts: 28mph
Location:  46.8905°N, 96.5417°W
Report Text: KJKJ 261011Z AUTO 36021G24KT 4SM UP OVC008 M11/M12 A3019 RMK AO2
Loading
Personal Weather Stations






























Interactive Weather Map New forecast layout! Learn more

10-Day Weather Forecast

Advertisements
Track Severe Weather on mobile